Time;durP1;ratioP1;P1;durP2;ratioP2;P2;SDS_P1;SDS_P2;PMS_P1;PMS_P2;Temp;Humidity;BMP_temperature;BMP_pressure;BME280_temperature;BME280_humidity;BME280_pressure;Samples;Min_cycle;Max_cycle;Signal;HPM_P1;HPM_P2
2021/12/19 00:00:51;;;;;;;9.43;5.72;;;9.50;84.40;;;;;;4936782;28;92473;-76
2021/12/19 00:08:54;;;;;;;6.15;4.93;;;9.60;84.20;;;;;;4937739;28;95333;-76
2021/12/19 00:11:22;;;;;;;10.88;5.82;;;9.50;84.40;;;;;;4936652;28;92469;-76
2021/12/19 00:13:53;;;;;;;8.25;4.88;;;9.50;84.80;;;;;;4937529;28;92571;-76
2021/12/19 00:16:20;;;;;;;6.38;4.32;;;9.50;84.70;;;;;;4937095;28;93078;-76
2021/12/19 00:18:50;;;;;;;7.75;4.70;;;9.40;85.00;;;;;;4935392;28;109742;-76
2021/12/19 00:21:17;;;;;;;6.55;3.78;;;9.40;85.70;;;;;;4937217;28;92468;-76
2021/12/19 00:23:46;;;;;;;8.85;4.25;;;9.40;85.90;;;;;;4937851;28;91726;-76
2021/12/19 00:26:15;;;;;;;8.98;4.50;;;9.30;85.90;;;;;;4935201;28;94062;-76
2021/12/19 00:28:43;;;;;;;7.20;4.50;;;9.40;86.10;;;;;;4937326;28;92943;-76
2021/12/19 00:31:10;;;;;;;6.50;4.20;;;9.40;86.20;;;;;;4934801;28;94800;-76
2021/12/19 00:33:39;;;;;;;6.43;3.97;;;9.40;86.10;;;;;;4936252;28;92536;-76
2021/12/19 00:36:07;;;;;;;6.40;4.03;;;9.40;85.70;;;;;;4936186;28;93070;-76
2021/12/19 00:38:35;;;;;;;7.97;4.40;;;9.50;86.30;;;;;;4937194;28;92375;-76
2021/12/19 00:41:05;;;;;;;7.25;4.88;;;9.40;86.30;;;;;;4935959;28;92576;-76
2021/12/19 00:43:37;;;;;;;7.10;4.28;;;9.40;86.30;;;;;;4937226;28;92853;-76
2021/12/19 00:46:07;;;;;;;8.25;4.78;;;9.50;86.30;;;;;;4936752;28;93059;-76
2021/12/19 00:48:36;;;;;;;8.05;4.40;;;9.50;86.40;;;;;;4937459;28;92741;-76
2021/12/19 00:51:04;;;;;;;9.20;4.90;;;9.60;86.10;;;;;;4936224;28;105446;-76
2021/12/19 00:53:32;;;;;;;8.65;5.00;;;9.60;85.60;;;;;;4935557;28;92504;-76
2021/12/19 00:55:59;;;;;;;6.82;4.60;;;9.60;85.40;;;;;;4934072;28;96573;-76
2021/12/19 00:58:26;;;;;;;10.63;5.22;;;9.60;85.50;;;;;;4936633;28;95175;-76
2021/12/19 01:00:53;;;;;;;12.18;5.32;;;9.60;85.50;;;;;;4936896;28;92464;-78
2021/12/19 01:03:21;;;;;;;9.13;5.82;;;9.60;85.30;;;;;;4936566;28;92475;-76
2021/12/19 01:05:49;;;;;;;8.40;5.63;;;9.60;85.00;;;;;;4936560;28;93106;-76
2021/12/19 01:08:16;;;;;;;7.45;4.85;;;9.60;84.90;;;;;;4951229;28;92781;-76
2021/12/19 01:10:45;;;;;;;7.70;5.03;;;9.50;84.20;;;;;;4936892;28;92522;-77
2021/12/19 01:13:14;;;;;;;8.13;5.07;;;9.50;84.30;;;;;;4935456;28;91764;-76
2021/12/19 01:15:41;;;;;;;9.65;5.22;;;9.40;83.80;;;;;;4936386;28;105382;-76
2021/12/19 01:18:08;;;;;;;12.30;5.68;;;9.40;84.20;;;;;;4935781;28;93259;-76
2021/12/19 01:20:38;;;;;;;10.75;6.30;;;9.40;85.40;;;;;;4935606;28;94865;-76
2021/12/19 01:23:05;;;;;;;11.77;6.20;;;9.50;85.70;;;;;;4935965;28;94020;-76
2021/12/19 01:25:33;;;;;;;11.57;5.65;;;9.50;85.50;;;;;;4936311;28;92992;-76
2021/12/19 01:28:00;;;;;;;9.07;5.43;;;9.50;85.80;;;;;;4951241;28;92799;-76
2021/12/19 01:30:27;;;;;;;9.57;6.38;;;9.50;85.60;;;;;;4935273;28;92492;-77
2021/12/19 01:32:54;;;;;;;9.80;4.97;;;9.50;85.80;;;;;;4951239;28;93360;-76
2021/12/19 01:35:24;;;;;;;9.07;4.90;;;9.40;85.70;;;;;;4918143;28;110497;-76
2021/12/19 01:37:52;;;;;;;6.50;3.90;;;9.40;85.30;;;;;;4935302;28;93963;-76
2021/12/19 01:40:20;;;;;;;4.43;2.85;;;9.40;84.60;;;;;;4936490;28;93072;-76
2021/12/19 01:42:50;;;;;;;5.18;2.70;;;9.40;84.40;;;;;;4951229;28;92476;-77
2021/12/19 01:45:28;;;;;;;4.45;2.22;;;9.30;85.40;;;;;;4933510;28;95461;-68
2021/12/19 01:47:56;;;;;;;2.88;2.25;;;9.30;85.10;;;;;;4937403;28;95206;-69
2021/12/19 01:50:24;;;;;;;5.03;2.40;;;9.20;86.10;;;;;;4939486;28;92467;-69
2021/12/19 01:52:51;;;;;;;2.97;2.00;;;9.20;87.30;;;;;;4939389;28;98178;-71
2021/12/19 01:55:19;;;;;;;3.63;1.65;;;9.10;87.40;;;;;;4939365;28;93091;-76
2021/12/19 01:57:46;;;;;;;3.88;1.92;;;9.10;87.80;;;;;;4939632;28;92783;-76
2021/12/19 02:00:21;;;;;;;1.80;1.60;;;9.10;88.00;;;;;;4938285;28;92631;-76
2021/12/19 02:02:48;;;;;;;3.80;1.70;;;9.10;87.60;;;;;;4940082;28;91708;-76
2021/12/19 02:05:16;;;;;;;2.55;1.33;;;9.10;88.20;;;;;;4939372;28;93340;-76
2021/12/19 02:07:46;;;;;;;3.20;1.60;;;9.20;87.90;;;;;;4939226;28;96362;-77
2021/12/19 02:10:22;;;;;;;2.70;1.40;;;9.20;87.80;;;;;;4938414;28;94945;-76
2021/12/19 02:12:51;;;;;;;1.90;1.17;;;9.20;87.50;;;;;;4939292;28;92479;-78
2021/12/19 02:15:23;;;;;;;2.35;1.10;;;9.10;86.80;;;;;;4939008;28;93852;-78
2021/12/19 02:17:52;;;;;;;2.30;1.00;;;9.10;87.00;;;;;;4939517;28;92926;-78
2021/12/19 02:20:21;;;;;;;3.60;1.23;;;9.10;86.50;;;;;;4939207;28;92550;-78
2021/12/19 02:22:48;;;;;;;3.50;1.00;;;9.00;86.70;;;;;;4939468;28;92526;-78
2021/12/19 02:25:16;;;;;;;1.13;0.77;;;8.90;87.30;;;;;;4938602;28;104988;-78
2021/12/19 02:27:43;;;;;;;1.67;1.20;;;8.90;87.60;;;;;;4939204;28;92758;-74
2021/12/19 02:30:12;;;;;;;2.13;1.00;;;9.00;88.60;;;;;;4937798;28;92409;-70
2021/12/19 02:32:40;;;;;;;3.28;1.48;;;9.00;88.40;;;;;;4953666;28;92875;-71
2021/12/19 02:35:14;;;;;;;3.03;2.15;;;9.00;88.40;;;;;;4937790;28;95333;-71
2021/12/19 02:40:36;;;;;;;2.45;1.08;;;9.10;88.40;;;;;;4954029;28;92455;-70
2021/12/19 02:48:35;;;;;;;1.65;0.85;;;9.20;87.60;;;;;;4936976;28;95860;-78
2021/12/19 02:51:03;;;;;;;1.30;1.15;;;9.10;87.00;;;;;;4938889;28;92399;-78
2021/12/19 02:53:35;;;;;;;1.60;1.50;;;9.10;86.90;;;;;;4939078;28;91670;-78
2021/12/19 02:56:05;;;;;;;0.90;0.90;;;9.10;86.30;;;;;;4938601;28;93026;-78
2021/12/19 02:58:34;;;;;;;3.13;1.38;;;9.10;84.90;;;;;;4938502;28;92928;-78
2021/12/19 03:01:04;;;;;;;2.80;0.95;;;9.10;84.60;;;;;;4935526;28;95335;-78
2021/12/19 03:03:31;;;;;;;1.30;1.20;;;9.00;84.80;;;;;;4938797;28;92424;-78
2021/12/19 03:05:58;;;;;;;2.63;1.10;;;9.00;85.20;;;;;;4938104;28;103264;-79
2021/12/19 03:08:25;;;;;;;2.28;1.17;;;8.90;85.50;;;;;;4938223;28;92765;-78
2021/12/19 03:18:53;;;;;;;1.95;1.30;;;8.80;88.10;;;;;;4938873;28;92775;-78
2021/12/19 03:21:24;;;;;;;3.17;1.70;;;8.80;88.40;;;;;;4938545;28;92453;-78
2021/12/19 03:23:51;;;;;;;1.85;1.40;;;8.70;88.80;;;;;;4938701;28;92493;-78
2021/12/19 03:26:19;;;;;;;5.43;1.45;;;8.70;89.00;;;;;;4936403;28;94877;-78
2021/12/19 03:28:46;;;;;;;3.75;1.80;;;8.60;89.40;;;;;;4937891;28;96899;-78
2021/12/19 03:31:13;;;;;;;1.92;0.70;;;8.60;89.80;;;;;;4937203;28;92799;-78
2021/12/19 03:33:40;;;;;;;1.02;0.88;;;8.60;89.40;;;;;;4937933;28;92422;-78
2021/12/19 03:36:08;;;;;;;1.15;0.70;;;8.60;89.40;;;;;;4938306;28;93151;-78
2021/12/19 03:38:40;;;;;;;0.60;0.60;;;8.50;90.80;;;;;;4937829;28;92789;-78
2021/12/19 03:43:40;;;;;;;0.90;0.50;;;8.40;90.20;;;;;;4938335;28;91706;-78
2021/12/19 03:46:07;;;;;;;0.68;0.63;;;8.30;90.50;;;;;;4936541;28;94146;-78
2021/12/19 03:48:34;;;;;;;1.70;0.65;;;8.20;90.70;;;;;;4936261;28;95189;-78
2021/12/19 03:51:01;;;;;;;1.38;0.73;;;8.20;90.80;;;;;;4934846;28;99800;-78
2021/12/19 03:53:28;;;;;;;1.65;0.90;;;8.20;90.90;;;;;;4937736;28;92444;-78
2021/12/19 03:55:55;;;;;;;2.38;1.10;;;8.20;90.60;;;;;;4952823;28;92933;-78
2021/12/19 03:58:22;;;;;;;4.15;1.05;;;8.10;90.70;;;;;;4952732;28;92787;-78
2021/12/19 04:00:52;;;;;;;1.88;1.15;;;8.10;90.80;;;;;;4936122;28;92422;-78
2021/12/19 04:03:21;;;;;;;3.20;1.58;;;8.10;90.80;;;;;;4937892;28;92425;-78
2021/12/19 04:05:49;;;;;;;2.05;0.88;;;8.10;90.80;;;;;;4937415;28;93222;-78
2021/12/19 04:08:17;;;;;;;1.13;0.90;;;8.10;90.60;;;;;;4937999;28;92799;-78
2021/12/19 04:10:46;;;;;;;3.63;1.10;;;8.10;90.70;;;;;;4935095;28;103159;-78
2021/12/19 04:13:14;;;;;;;2.55;1.27;;;8.10;90.70;;;;;;4937488;28;92471;-78
2021/12/19 04:15:41;;;;;;;1.70;1.27;;;8.10;90.70;;;;;;4935961;28;95607;-78
2021/12/19 04:18:08;;;;;;;1.92;1.20;;;8.10;90.80;;;;;;4935967;28;99737;-79
2021/12/19 04:20:35;;;;;;;4.40;1.42;;;8.10;90.80;;;;;;4937494;28;92560;-78
2021/12/19 04:23:04;;;;;;;4.85;1.63;;;8.10;91.00;;;;;;4936274;28;92567;-79
2021/12/19 04:25:31;;;;;;;3.55;1.45;;;8.20;91.00;;;;;;4936982;28;93084;-78
2021/12/19 04:27:58;;;;;;;2.80;1.38;;;8.10;90.50;;;;;;4951991;28;92436;-78
2021/12/19 04:30:26;;;;;;;5.07;1.45;;;8.10;90.70;;;;;;4937687;28;93195;-78
2021/12/19 04:33:07;;;;;;;1.80;1.30;;;8.10;90.30;;;;;;4935580;28;105984;-78
2021/12/19 04:35:36;;;;;;;2.70;1.45;;;8.20;90.50;;;;;;4935716;28;94379;-79
2021/12/19 04:39:18;;;;;;;2.63;1.40;;;8.20;90.60;;;;;;4937085;28;92876;-78
2021/12/19 04:41:24;;;;;;;2.10;1.40;;;8.20;90.40;;;;;;4932006;28;95942;-79
2021/12/19 04:52:58;;;;;;;6.65;2.83;;;8.20;90.30;;;;;;4949881;28;92428;-78
2021/12/19 04:55:14;;;;;;;5.95;2.20;;;8.30;90.50;;;;;;4932959;28;92546;-78
2021/12/19 05:00:15;;;;;;;7.53;2.90;;;8.30;89.50;;;;;;4937427;28;92895;-78
2021/12/19 05:03:04;;;;;;;5.35;3.13;;;8.30;89.40;;;;;;4935682;28;92553;-78
2021/12/19 05:06:31;;;;;;;6.57;2.75;;;8.30;89.20;;;;;;4935724;28;92773;-78
2021/12/19 05:14:10;;;;;;;9.90;3.75;;;8.30;88.70;;;;;;4936809;28;92503;-79
2021/12/19 05:16:41;;;;;;;6.30;3.65;;;8.40;88.00;;;;;;4936508;28;93629;-78
2021/12/19 05:19:23;;;;;;;9.73;4.20;;;8.40;87.60;;;;;;4936775;28;93007;-78
2021/12/19 05:21:53;;;;;;;9.00;3.67;;;8.40;87.70;;;;;;4934987;28;95992;-79
2021/12/19 05:24:43;;;;;;;8.18;4.18;;;8.40;88.10;;;;;;4936842;28;92375;-78
2021/12/19 05:27:10;;;;;;;11.55;4.28;;;8.50;88.50;;;;;;4936225;28;93773;-71
2021/12/19 05:29:38;;;;;;;7.97;3.17;;;8.50;88.10;;;;;;4934956;28;98879;-70
2021/12/19 05:32:05;;;;;;;12.13;4.78;;;8.50;87.60;;;;;;4936417;28;97162;-68
2021/12/19 05:34:33;;;;;;;10.73;4.07;;;8.60;87.00;;;;;;4934086;28;94849;-70
2021/12/19 05:45:20;;;;;;;11.45;5.25;;;8.50;86.10;;;;;;4935133;28;92495;-69
2021/12/19 05:47:49;;;;;;;14.30;6.28;;;8.60;86.50;;;;;;4951038;28;92426;-69
2021/12/19 05:50:19;;;;;;;21.10;6.30;;;8.60;86.90;;;;;;4936034;28;94057;-69
2021/12/19 05:52:47;;;;;;;12.63;4.80;;;8.60;86.30;;;;;;4936365;28;92843;-68
2021/12/19 05:55:16;;;;;;;12.02;4.88;;;8.60;86.60;;;;;;4936410;28;92609;-68
2021/12/19 05:57:44;;;;;;;15.98;7.03;;;8.60;86.80;;;;;;4936163;28;92513;-68
2021/12/19 06:00:16;;;;;;;16.48;6.03;;;8.60;87.10;;;;;;4934931;28;95565;-69
2021/12/19 06:02:43;;;;;;;20.30;6.20;;;8.60;86.70;;;;;;4935630;28;95155;-69
2021/12/19 06:05:12;;;;;;;15.55;6.70;;;8.60;86.90;;;;;;4950830;28;92602;-69
2021/12/19 06:07:40;;;;;;;13.68;5.07;;;8.60;86.70;;;;;;4935960;28;95157;-69
2021/12/19 06:10:09;;;;;;;13.48;4.47;;;8.60;86.90;;;;;;4934331;28;94304;-69
2021/12/19 06:12:37;;;;;;;11.85;5.53;;;8.60;86.90;;;;;;4935902;28;92833;-69
2021/12/19 06:15:09;;;;;;;10.77;4.68;;;8.60;86.90;;;;;;4935622;28;92534;-69
2021/12/19 06:17:41;;;;;;;10.68;4.80;;;8.60;86.40;;;;;;4936501;28;91600;-69
2021/12/19 06:20:10;;;;;;;16.75;6.32;;;8.60;86.20;;;;;;4935905;28;93833;-69
2021/12/19 06:22:38;;;;;;;14.82;5.28;;;8.60;86.20;;;;;;4935821;28;94764;-69
2021/12/19 06:25:06;;;;;;;19.48;6.32;;;8.70;86.70;;;;;;4934585;28;94850;-69
2021/12/19 06:27:33;;;;;;;11.95;6.03;;;8.70;86.90;;;;;;4935362;28;92456;-69
2021/12/19 06:30:00;;;;;;;18.73;5.78;;;8.70;87.00;;;;;;4935500;28;92458;-69
2021/12/19 06:32:27;;;;;;;17.33;5.30;;;8.70;86.70;;;;;;4935613;28;92915;-69
2021/12/19 06:34:54;;;;;;;15.10;5.82;;;8.70;86.90;;;;;;4937025;28;92858;-69
2021/12/19 06:37:21;;;;;;;15.48;5.22;;;8.70;87.30;;;;;;4939255;28;92780;-69
2021/12/19 06:39:48;;;;;;;14.70;5.68;;;8.60;86.60;;;;;;4937472;28;93063;-69
2021/12/19 06:42:15;;;;;;;17.27;6.97;;;8.70;85.90;;;;;;4939223;28;92717;-69
2021/12/19 06:44:43;;;;;;;18.88;5.45;;;8.70;86.40;;;;;;4939115;28;92359;-69
2021/12/19 06:47:09;;;;;;;18.27;6.22;;;8.70;86.50;;;;;;4938831;28;92439;-69
2021/12/19 06:49:36;;;;;;;19.75;5.63;;;8.70;86.50;;;;;;4952396;28;95482;-69
2021/12/19 06:52:04;;;;;;;17.20;6.18;;;8.70;86.50;;;;;;4938640;28;95121;-69
2021/12/19 06:54:30;;;;;;;19.48;7.30;;;8.80;87.20;;;;;;4937293;28;99252;-69
2021/12/19 06:56:57;;;;;;;9.35;3.78;;;8.80;86.70;;;;;;4937499;28;92498;-69
2021/12/19 06:59:24;;;;;;;9.40;4.07;;;8.80;86.60;;;;;;4938856;28;93057;-69
2021/12/19 07:01:51;;;;;;;17.58;5.43;;;8.80;86.00;;;;;;4938423;28;92846;-69
2021/12/19 07:04:18;;;;;;;17.88;5.70;;;8.80;86.40;;;;;;4921654;28;93048;-69
2021/12/19 07:06:45;;;;;;;11.75;4.95;;;8.80;86.50;;;;;;4937704;28;91775;-69
2021/12/19 07:09:12;;;;;;;10.38;5.18;;;8.80;86.50;;;;;;4938214;28;93033;-69
2021/12/19 07:11:39;;;;;;;16.00;4.68;;;8.80;86.70;;;;;;4938686;28;93060;-69
2021/12/19 07:14:06;;;;;;;16.15;4.80;;;8.80;86.80;;;;;;4937526;28;95265;-69
2021/12/19 07:16:33;;;;;;;11.23;4.60;;;8.80;86.80;;;;;;4938315;28;103160;-69
2021/12/19 07:19:00;;;;;;;11.52;4.22;;;8.80;87.00;;;;;;4938203;28;93083;-69
2021/12/19 07:21:29;;;;;;;12.43;4.35;;;8.70;86.90;;;;;;4938371;28;92892;-77
2021/12/19 07:23:56;;;;;;;9.30;4.07;;;8.70;86.60;;;;;;4952528;28;92492;-77
2021/12/19 07:26:24;;;;;;;11.80;4.43;;;8.70;86.60;;;;;;4937070;28;92872;-76
2021/12/19 07:28:51;;;;;;;10.55;3.85;;;8.70;86.80;;;;;;4938397;28;92855;-77
2021/12/19 07:31:19;;;;;;;10.15;3.95;;;8.70;86.50;;;;;;4937157;28;94028;-77
2021/12/19 07:33:46;;;;;;;12.25;3.55;;;8.70;86.30;;;;;;4938032;28;95109;-77
2021/12/19 07:36:14;;;;;;;10.70;3.40;;;8.70;86.30;;;;;;4938028;28;92834;-77
2021/12/19 07:38:55;;;;;;;10.68;3.30;;;8.70;86.20;;;;;;4936810;28;95505;-77
2021/12/19 07:41:22;;;;;;;10.20;3.22;;;8.70;86.00;;;;;;4938130;28;95257;-69
2021/12/19 07:43:49;;;;;;;12.27;3.33;;;8.70;86.20;;;;;;4937405;28;92476;-77
2021/12/19 07:46:16;;;;;;;11.10;2.80;;;8.70;86.10;;;;;;4937976;28;92917;-69
2021/12/19 07:48:43;;;;;;;13.02;3.70;;;8.70;86.10;;;;;;4952848;28;93149;-77
2021/12/19 07:51:10;;;;;;;10.35;4.65;;;8.80;86.30;;;;;;4937728;28;93079;-77
2021/12/19 07:53:37;;;;;;;9.32;3.72;;;8.80;86.40;;;;;;4938465;28;92466;-76
2021/12/19 07:56:05;;;;;;;10.38;2.75;;;8.80;86.30;;;;;;4938210;28;92208;-77
2021/12/19 07:58:32;;;;;;;13.70;3.50;;;8.70;86.10;;;;;;4937326;28;109349;-77
2021/12/19 08:00:59;;;;;;;11.15;3.63;;;8.80;86.20;;;;;;4936268;28;94424;-77
2021/12/19 08:03:26;;;;;;;12.93;3.83;;;8.80;86.30;;;;;;4936398;28;94872;-77
2021/12/19 08:05:54;;;;;;;9.30;2.88;;;8.80;87.10;;;;;;4937931;28;92418;-76
2021/12/19 08:08:26;;;;;;;10.93;3.28;;;8.90;86.50;;;;;;4936268;28;93085;-76
2021/12/19 08:13:39;;;;;;;17.23;3.75;;;9.00;86.80;;;;;;4950704;28;92531;-76
2021/12/19 08:16:06;;;;;;;5.95;2.33;;;9.00;86.30;;;;;;4936139;28;92518;-76
2021/12/19 08:18:34;;;;;;;14.00;3.70;;;9.00;85.80;;;;;;4937549;28;93544;-77
2021/12/19 08:21:02;;;;;;;7.65;2.72;;;9.10;86.20;;;;;;4937539;28;93009;-77
2021/12/19 08:23:29;;;;;;;13.13;3.03;;;9.10;85.90;;;;;;4937689;28;92419;-77
2021/12/19 08:25:56;;;;;;;10.18;3.40;;;9.00;85.60;;;;;;4937281;28;92683;-77
2021/12/19 08:28:23;;;;;;;11.18;2.67;;;9.10;85.70;;;;;;4935612;28;95507;-77
2021/12/19 08:30:51;;;;;;;9.45;2.60;;;9.10;85.20;;;;;;4936083;28;94009;-77
2021/12/19 08:33:18;;;;;;;7.15;3.10;;;9.00;85.50;;;;;;4935987;28;92496;-76
2021/12/19 08:35:46;;;;;;;9.70;2.55;;;9.00;85.30;;;;;;4937270;28;95485;-77
2021/12/19 08:38:13;;;;;;;13.43;2.75;;;9.00;85.80;;;;;;4935626;28;94204;-77
2021/12/19 08:40:40;;;;;;;11.65;2.92;;;9.10;85.50;;;;;;4936047;28;92764;-76
2021/12/19 08:43:08;;;;;;;12.35;2.65;;;9.00;86.10;;;;;;4936926;28;92455;-77
2021/12/19 08:45:35;;;;;;;11.90;2.78;;;9.00;86.00;;;;;;4937312;28;98056;-76
2021/12/19 08:48:04;;;;;;;7.63;1.88;;;9.00;86.00;;;;;;4937053;28;92960;-77
2021/12/19 08:50:32;;;;;;;10.57;2.90;;;9.00;85.40;;;;;;4937041;28;92878;-76
2021/12/19 08:52:59;;;;;;;12.95;3.10;;;9.10;86.20;;;;;;4936048;28;94883;-77
2021/12/19 08:55:26;;;;;;;10.73;3.42;;;9.10;85.80;;;;;;4936955;28;92498;-77
2021/12/19 08:57:53;;;;;;;9.65;3.35;;;9.10;85.60;;;;;;4934809;28;94415;-77
2021/12/19 09:00:21;;;;;;;10.48;3.13;;;9.10;85.90;;;;;;4936838;28;92756;-76
2021/12/19 09:02:51;;;;;;;11.10;2.97;;;9.10;86.20;;;;;;4937093;28;92438;-69
2021/12/19 09:05:19;;;;;;;6.90;2.75;;;9.20;86.30;;;;;;4951712;28;92471;-76
2021/12/19 09:07:46;;;;;;;11.05;3.33;;;9.30;86.20;;;;;;4936472;28;105949;-76
2021/12/19 09:10:13;;;;;;;9.95;3.10;;;9.30;85.90;;;;;;4936761;28;93061;-76
2021/12/19 09:12:40;;;;;;;9.30;3.35;;;9.30;85.80;;;;;;4937099;28;92470;-76
2021/12/19 09:15:07;;;;;;;16.63;3.17;;;9.30;85.90;;;;;;4936767;28;92459;-76
2021/12/19 09:17:35;;;;;;;11.27;3.35;;;9.40;85.70;;;;;;4934398;28;95502;-77
2021/12/19 09:20:04;;;;;;;8.27;2.85;;;9.40;85.10;;;;;;4936645;28;95198;-69
2021/12/19 09:22:31;;;;;;;7.78;2.38;;;9.40;85.40;;;;;;4936603;28;92768;-69
2021/12/19 09:25:14;;;;;;;9.52;2.78;;;9.40;84.90;;;;;;4935161;28;92503;-69
2021/12/19 09:27:42;;;;;;;12.88;3.20;;;9.40;85.20;;;;;;4935081;28;93273;-69
2021/12/19 09:30:09;;;;;;;8.55;2.72;;;9.50;85.40;;;;;;4935156;28;92986;-69
2021/12/19 09:32:36;;;;;;;9.48;3.55;;;9.50;85.00;;;;;;4935067;28;96940;-69
2021/12/19 09:35:03;;;;;;;12.10;2.67;;;9.60;85.30;;;;;;4937049;28;91713;-69
2021/12/19 09:37:30;;;;;;;12.75;3.08;;;9.60;84.10;;;;;;4936092;28;93123;-69
2021/12/19 09:40:01;;;;;;;8.35;2.47;;;9.70;84.10;;;;;;4936411;28;92731;-69
2021/12/19 09:42:33;;;;;;;10.88;3.35;;;9.70;84.30;;;;;;4933988;28;95016;-69
2021/12/19 09:45:03;;;;;;;7.68;2.00;;;9.70;84.10;;;;;;4936744;28;92339;-76
2021/12/19 09:47:30;;;;;;;11.25;2.75;;;9.70;83.90;;;;;;4936277;28;92927;-76
2021/12/19 09:50:00;;;;;;;11.23;2.83;;;9.80;84.50;;;;;;4950695;28;92859;-76
2021/12/19 09:52:28;;;;;;;12.52;2.90;;;9.90;84.40;;;;;;4936195;28;92439;-76
2021/12/19 09:54:55;;;;;;;8.25;3.10;;;9.90;84.30;;;;;;4934993;28;92445;-76
2021/12/19 09:57:23;;;;;;;18.13;9.15;;;9.80;84.00;;;;;;4935755;28;92811;-76
2021/12/19 09:59:51;;;;;;;20.15;9.32;;;9.90;84.10;;;;;;4936132;28;107500;-76
2021/12/19 10:02:18;;;;;;;9.73;4.68;;;9.90;84.00;;;;;;4951128;28;92518;-77
2021/12/19 10:04:46;;;;;;;8.95;5.22;;;9.80;84.00;;;;;;4935141;28;92533;-76
2021/12/19 10:07:13;;;;;;;12.07;3.53;;;9.80;83.70;;;;;;4934860;28;95464;-76
2021/12/19 10:10:12;;;;;;;9.68;3.05;;;9.80;83.60;;;;;;4935261;28;96313;-76
2021/12/19 10:12:51;;;;;;;10.18;3.35;;;9.80;83.40;;;;;;4939601;28;92437;-76
2021/12/19 10:15:34;;;;;;;14.95;3.65;;;9.80;83.60;;;;;;4939444;28;92441;-76
2021/12/19 10:18:09;;;;;;;11.35;3.47;;;9.80;83.40;;;;;;4937945;28;94171;-77
2021/12/19 10:20:40;;;;;;;16.48;3.35;;;9.90;83.30;;;;;;4939198;28;95161;-76
2021/12/19 10:23:13;;;;;;;15.70;3.45;;;9.80;83.40;;;;;;4939431;28;92548;-76
2021/12/19 10:25:40;;;;;;;10.50;2.50;;;9.90;83.70;;;;;;4938423;28;91683;-76
2021/12/19 10:28:10;;;;;;;8.38;2.70;;;9.90;83.20;;;;;;4939052;28;92989;-76
2021/12/19 10:30:46;;;;;;;4.30;1.83;;;9.90;83.30;;;;;;4938772;28;94941;-76
2021/12/19 10:33:18;;;;;;;10.65;3.65;;;9.70;82.50;;;;;;4936927;28;94843;-76
2021/12/19 10:35:50;;;;;;;10.25;3.08;;;9.70;82.40;;;;;;4939050;28;92436;-69
2021/12/19 10:38:29;;;;;;;7.82;2.72;;;9.60;82.70;;;;;;4937637;28;94344;-69
2021/12/19 10:41:00;;;;;;;7.00;2.60;;;9.60;83.30;;;;;;4939214;28;92804;-69
2021/12/19 10:43:31;;;;;;;10.30;2.90;;;9.60;83.30;;;;;;4939176;28;92446;-69
2021/12/19 10:46:04;;;;;;;11.35;2.80;;;9.60;83.60;;;;;;4939370;28;92957;-69
2021/12/19 10:48:36;;;;;;;11.35;3.38;;;9.70;83.70;;;;;;4938592;28;93576;-69
2021/12/19 10:51:08;;;;;;;10.65;3.15;;;9.60;83.80;;;;;;4939371;28;92830;-69
2021/12/19 10:53:54;;;;;;;11.88;2.78;;;9.60;83.30;;;;;;4938910;28;92510;-69
2021/12/19 10:56:23;;;;;;;12.27;2.50;;;9.60;82.80;;;;;;4938975;28;92391;-69
2021/12/19 10:58:59;;;;;;;14.10;2.72;;;9.60;82.30;;;;;;4937075;28;102454;-69
2021/12/19 11:01:38;;;;;;;10.75;2.47;;;9.70;82.00;;;;;;4938635;28;95401;-69
2021/12/19 11:04:15;;;;;;;5.70;2.08;;;9.70;81.60;;;;;;4939080;28;92341;-69
2021/12/19 11:06:45;;;;;;;6.78;2.15;;;9.70;81.30;;;;;;4938581;28;92440;-69
2021/12/19 11:09:18;;;;;;;9.18;2.20;;;9.70;80.80;;;;;;4938703;28;93008;-69
2021/12/19 11:11:58;;;;;;;13.40;2.65;;;9.70;80.90;;;;;;4938293;28;92920;-69
2021/12/19 11:14:34;;;;;;;13.07;3.38;;;9.70;81.50;;;;;;4937485;28;92442;-76
2021/12/19 11:17:14;;;;;;;15.50;2.80;;;9.70;81.60;;;;;;4939149;28;91630;-76
2021/12/19 11:19:43;;;;;;;7.40;2.15;;;9.70;82.20;;;;;;4936568;28;94174;-76
2021/12/19 11:22:23;;;;;;;7.32;2.60;;;9.70;81.90;;;;;;4936662;28;95659;-76
2021/12/19 11:24:52;;;;;;;10.73;2.33;;;9.80;81.40;;;;;;4937510;28;94884;-76
2021/12/19 11:27:20;;;;;;;9.45;2.35;;;9.80;81.30;;;;;;4938014;28;92491;-76
2021/12/19 11:29:49;;;;;;;8.27;2.70;;;9.90;81.20;;;;;;4938133;28;93007;-76
2021/12/19 11:32:19;;;;;;;11.25;2.78;;;9.90;80.80;;;;;;4938368;28;92927;-76
2021/12/19 11:35:01;;;;;;;14.18;2.83;;;10.00;79.90;;;;;;4938445;28;92540;-77
2021/12/19 11:37:39;;;;;;;14.80;2.70;;;10.00;80.30;;;;;;4936958;28;92446;-76
2021/12/19 11:40:07;;;;;;;11.75;2.90;;;10.10;80.10;;;;;;4938362;28;92729;-76
2021/12/19 11:42:40;;;;;;;8.18;2.10;;;10.00;80.00;;;;;;4938182;28;92670;-76
2021/12/19 11:48:07;;;;;;;7.07;2.33;;;10.10;78.90;;;;;;4938336;28;92392;-76
2021/12/19 11:50:48;;;;;;;8.70;2.72;;;10.10;78.60;;;;;;4936493;28;95542;-76
2021/12/19 11:53:15;;;;;;;14.65;3.15;;;10.00;78.70;;;;;;4937971;28;95193;-76
2021/12/19 11:55:49;;;;;;;8.82;2.20;;;10.00;78.70;;;;;;4938165;28;93301;-76
2021/12/19 11:58:16;;;;;;;;;;;10.00;78.80;;;;;;4937483;28;92476;-76
2021/12/19 12:00:47;;;;;;;11.15;2.63;;;9.90;79.10;;;;;;4921181;28;94152;-77
2021/12/19 12:03:14;;;;;;;15.05;2.75;;;9.90;78.90;;;;;;4937797;28;92983;-76
2021/12/19 12:05:45;;;;;;;12.30;2.33;;;9.90;79.20;;;;;;4937849;28;92535;-69
2021/12/19 12:08:15;;;;;;;10.82;2.85;;;10.00;79.40;;;;;;4938374;28;92281;-69
2021/12/19 12:10:48;;;;;;;13.45;2.13;;;10.00;79.00;;;;;;4937225;28;93052;-69
2021/12/19 12:13:41;;;;;;;7.43;2.10;;;10.00;79.20;;;;;;4936133;28;94583;-69
2021/12/19 12:18:43;;;;;;;13.90;2.55;;;9.90;79.20;;;;;;4936073;28;92812;-69
2021/12/19 12:23:54;;;;;;;7.75;2.38;;;10.10;79.30;;;;;;4937474;28;92358;-69
2021/12/19 12:26:39;;;;;;;18.58;3.60;;;10.10;79.20;;;;;;4935686;28;92589;-69
2021/12/19 12:29:07;;;;;;;14.82;3.35;;;10.10;79.70;;;;;;4937767;28;92536;-69
2021/12/19 12:31:36;;;;;;;20.17;3.72;;;10.00;79.70;;;;;;4936451;28;94270;-77
2021/12/19 12:34:08;;;;;;;16.15;2.88;;;10.10;79.50;;;;;;4935689;28;92955;-77
2021/12/19 12:36:35;;;;;;;11.85;2.80;;;10.10;79.30;;;;;;4937209;28;92341;-69
2021/12/19 12:39:08;;;;;;;12.57;3.05;;;10.10;79.80;;;;;;4937429;28;92501;-69
2021/12/19 12:44:08;;;;;;;13.75;2.28;;;10.00;79.30;;;;;;4937183;28;95283;-69
2021/12/19 12:46:36;;;;;;;14.18;3.58;;;10.00;80.00;;;;;;4935792;28;92588;-69
2021/12/19 12:49:08;;;;;;;12.40;3.13;;;10.00;80.30;;;;;;4937175;28;92514;-76
2021/12/19 12:51:41;;;;;;;12.75;4.10;;;10.00;80.70;;;;;;4936708;28;93266;-76
2021/12/19 12:54:18;;;;;;;11.32;3.22;;;10.00;80.90;;;;;;4937194;28;92760;-76
2021/12/19 12:56:50;;;;;;;14.77;2.80;;;9.90;80.60;;;;;;4937109;28;92705;-77
2021/12/19 12:59:29;;;;;;;14.32;2.75;;;9.90;81.60;;;;;;4936041;28;91916;-69
2021/12/19 13:02:17;;;;;;;15.30;2.92;;;9.80;81.50;;;;;;4936962;28;93173;-69
2021/12/19 13:04:47;;;;;;;11.48;2.63;;;9.80;81.70;;;;;;4919239;28;93990;-76
2021/12/19 13:07:16;;;;;;;11.40;3.10;;;9.70;81.40;;;;;;4935865;28;94802;-76
2021/12/19 13:09:45;;;;;;;10.88;2.45;;;9.70;81.80;;;;;;4936840;28;92465;-77
2021/12/19 13:12:20;;;;;;;10.27;2.42;;;9.70;81.80;;;;;;4936587;28;93090;-77
2021/12/19 13:15:03;;;;;;;15.43;2.90;;;9.80;81.60;;;;;;4936525;28;92745;-77
2021/12/19 13:17:32;;;;;;;13.75;2.03;;;9.80;82.20;;;;;;4937047;28;92503;-77
2021/12/19 13:20:36;;;;;;;11.02;2.78;;;9.70;81.40;;;;;;4936585;28;92418;-77
2021/12/19 13:23:03;;;;;;;13.30;3.67;;;9.70;81.80;;;;;;4933878;28;98504;-77
2021/12/19 13:25:44;;;;;;;10.65;3.30;;;9.70;82.10;;;;;;4936399;28;92877;-77
2021/12/19 13:28:20;;;;;;;13.55;3.00;;;9.90;81.20;;;;;;4934677;28;92509;-76
2021/12/19 13:30:47;;;;;;;9.73;2.72;;;9.90;81.00;;;;;;4934747;28;92469;-77
2021/12/19 13:33:18;;;;;;;9.23;2.53;;;9.90;80.90;;;;;;4935228;28;95496;-77
2021/12/19 13:35:49;;;;;;;12.32;2.67;;;10.00;80.80;;;;;;4936548;28;95132;-77
2021/12/19 13:38:24;;;;;;;12.30;2.30;;;10.00;80.00;;;;;;4936700;28;93028;-77
2021/12/19 13:41:02;;;;;;;8.80;2.00;;;10.00;80.00;;;;;;4919132;28;92763;-77
2021/12/19 13:43:34;;;;;;;8.52;2.53;;;10.10;80.10;;;;;;4937010;28;93222;-69
2021/12/19 13:46:09;;;;;;;11.13;2.78;;;10.00;79.50;;;;;;4939269;28;94540;-69
2021/12/19 13:49:01;;;;;;;11.80;3.47;;;10.00;78.90;;;;;;4938669;28;92450;-69
2021/12/19 13:51:31;;;;;;;5.97;2.17;;;10.00;79.20;;;;;;4922740;28;91700;-69
2021/12/19 13:54:00;;;;;;;10.50;2.75;;;9.90;78.80;;;;;;4939575;28;93118;-69
2021/12/19 13:56:30;;;;;;;11.48;2.30;;;9.90;79.60;;;;;;4939533;28;92874;-69
2021/12/19 13:59:20;;;;;;;10.90;2.40;;;10.00;79.80;;;;;;4938555;28;94876;-69
2021/12/19 14:01:48;;;;;;;10.82;2.90;;;10.00;79.80;;;;;;4939263;28;92467;-69
2021/12/19 14:04:24;;;;;;;8.07;2.00;;;10.00;80.70;;;;;;4937931;28;98203;-69
2021/12/19 14:06:59;;;;;;;13.75;2.72;;;10.00;80.10;;;;;;4939373;28;92787;-77
2021/12/19 14:09:45;;;;;;;13.52;2.90;;;10.00;80.40;;;;;;4939593;28;92413;-76